CFG2005 SBGR-EDDF
Flight info
| Callsign | CFG2005 |
|---|---|
| Flight time | N/A |
| Altitude | 35000 |
| Route | EDLUT2A VUMEV UZ14 AMBET UN857 KOPDU/N0474F370 UN857 GUNET N857 DEREV/N0457F380 N857 LZR N871 KORAL UG5 SONSO DCT ADUBI DCT SVL N10 HIJ Z230 TLD N858 SIE/N0456F400 N858 DGO L176 LUSEM DCT LULUT DCT ADABI DCT BOKNO DCT DIBES DCT TSU UN858 VALEK/N0457F390 UM163 DIK T856 NIVNU T847 IMCOM IMCOM1D |
| Aircraft | A339/H-SADE1E2E3GHIJ3J5M1P2RWXY/LB2D1 |
Departure
| Time | 2026-05-07 23:22 |
|---|---|
| Airport | São Paulo/Guarulhos–Governor André Franco Montoro International Airport (SBGR) |
Arrival
| Time | N/A |
|---|---|
| Airport | Frankfurt Main Airport (EDDF) |
| Time | Latitude | Longitude | Altitude | Speed | Heading |
|---|---|---|---|---|---|
| 2026-05-07 22:51 | -23.42736 | -46.47954 | 2471 ft | 0 kts | 264° |
| 2026-05-07 23:14 | -23.42735 | -46.47945 | 2474 ft | 2 kts | 259° |
| 2026-05-07 23:14 | -23.42733 | -46.47930 | 2471 ft | 2 kts | 258° |
| 2026-05-07 23:15 | -23.42729 | -46.47914 | 2471 ft | 2 kts | 252° |
| 2026-05-07 23:15 | -23.42724 | -46.47899 | 2471 ft | 2 kts | 242° |
| 2026-05-07 23:15 | -23.42716 | -46.47885 | 2473 ft | 2 kts | 219° |
| 2026-05-07 23:15 | -23.42703 | -46.47877 | 2471 ft | 2 kts | 185° |
| 2026-05-07 23:16 | -23.42692 | -46.47877 | 2471 ft | 1 kts | 172° |
| 2026-05-07 23:16 | -23.42690 | -46.47877 | 2471 ft | 0 kts | 171° |
| 2026-05-07 23:18 | -23.42714 | -46.47873 | 2475 ft | 9 kts | 171° |
| 2026-05-07 23:19 | -23.42814 | -46.47853 | 2472 ft | 20 kts | 169° |
| 2026-05-07 23:19 | -23.42951 | -46.47874 | 2477 ft | 20 kts | 233° |
| 2026-05-07 23:19 | -23.43008 | -46.48044 | 2472 ft | 28 kts | 253° |
| 2026-05-07 23:19 | -23.43055 | -46.48279 | 2471 ft | 35 kts | 265° |
| 2026-05-07 23:20 | -23.43116 | -46.48419 | 2475 ft | 11 kts | 180° |
| 2026-05-07 23:20 | -23.43220 | -46.48391 | 2475 ft | 20 kts | 163° |
| 2026-05-07 23:20 | -23.43381 | -46.48335 | 2473 ft | 16 kts | 149° |
| 2026-05-07 23:20 | -23.43402 | -46.48231 | 2472 ft | 7 kts | 75° |
| 2026-05-07 23:21 | -23.43402 | -46.48229 | 2472 ft | 0 kts | 75° |
| 2026-05-07 23:21 | -23.43401 | -46.48228 | 2472 ft | 0 kts | 75° |
| 2026-05-07 23:21 | -23.43376 | -46.48135 | 2473 ft | 41 kts | 73° |
| 2026-05-07 23:22 | -23.43225 | -46.47587 | 2476 ft | 109 kts | 73° |
| 2026-05-07 23:22 | -23.42947 | -46.46569 | 2476 ft | 168 kts | 74° |
| 2026-05-07 23:22 | -23.42586 | -46.45196 | 2728 ft | 197 kts | 74° |
| 2026-05-07 23:22 | -23.42266 | -46.43803 | 3741 ft | 186 kts | 73° |
| 2026-05-07 23:23 | -23.41965 | -46.42417 | 4410 ft | 196 kts | 71° |
| 2026-05-07 23:23 | -23.41637 | -46.40879 | 4631 ft | 221 kts | 72° |
| 2026-05-07 23:23 | -23.41280 | -46.39144 | 4762 ft | 248 kts | 72° |
| 2026-05-07 23:23 | -23.40873 | -46.37210 | 4868 ft | 275 kts | 72° |
| 2026-05-07 23:24 | -23.40583 | -46.35865 | 5350 ft | 275 kts | 72° |
| 2026-05-07 23:24 | -23.40145 | -46.33844 | 6212 ft | 275 kts | 72° |
| 2026-05-07 23:24 | -23.39697 | -46.31793 | 6839 ft | 280 kts | 72° |
| 2026-05-07 23:24 | -23.39245 | -46.29709 | 7508 ft | 284 kts | 72° |
| 2026-05-07 23:25 | -23.38784 | -46.27604 | 8171 ft | 287 kts | 72° |
| 2026-05-07 23:25 | -23.38236 | -46.25517 | 8813 ft | 286 kts | 60° |
| 2026-05-07 23:25 | -23.37292 | -46.24139 | 9362 ft | 274 kts | 32° |
| 2026-05-07 23:26 | -23.36073 | -46.23366 | 9824 ft | 273 kts | 21° |
| 2026-05-07 23:26 | -23.34314 | -46.22509 | 10236 ft | 283 kts | 23° |
| 2026-05-07 23:26 | -23.32566 | -46.21509 | 10897 ft | 286 kts | 26° |
| 2026-05-07 23:26 | -23.30748 | -46.20476 | 11125 ft | 305 kts | 23° |
| 2026-05-07 23:27 | -23.26676 | -46.18392 | 11571 ft | 342 kts | 26° |
| 2026-05-07 23:27 | -23.24584 | -46.17162 | 12432 ft | 339 kts | 26° |
| 2026-05-07 23:27 | -23.22466 | -46.15995 | 13035 ft | 344 kts | 24° |
| 2026-05-07 23:28 | -23.20286 | -46.14887 | 13675 ft | 348 kts | 24° |
| 2026-05-07 23:28 | -23.18110 | -46.13705 | 14270 ft | 351 kts | 26° |
| 2026-05-07 23:28 | -23.15924 | -46.12459 | 14811 ft | 355 kts | 26° |
| 2026-05-07 23:28 | -23.13694 | -46.11261 | 15363 ft | 359 kts | 25° |
| 2026-05-07 23:29 | -23.11456 | -46.10089 | 15919 ft | 363 kts | 25° |
| 2026-05-07 23:29 | -23.09181 | -46.08838 | 16461 ft | 368 kts | 26° |
| 2026-05-07 23:29 | -23.06892 | -46.07566 | 17000 ft | 372 kts | 26° |
| 2026-05-07 23:29 | -23.04557 | -46.06323 | 17546 ft | 376 kts | 25° |
| 2026-05-07 23:30 | -23.02195 | -46.05064 | 18089 ft | 380 kts | 26° |
| 2026-05-07 23:30 | -22.99827 | -46.03758 | 18614 ft | 384 kts | 26° |
| 2026-05-07 23:30 | -22.97426 | -46.02445 | 19099 ft | 387 kts | 25° |
| 2026-05-07 23:30 | -22.94993 | -46.01153 | 19553 ft | 392 kts | 25° |
| 2026-05-07 23:31 | -22.92561 | -45.99844 | 20011 ft | 396 kts | 25° |
| 2026-05-07 23:31 | -22.90083 | -45.98480 | 20459 ft | 401 kts | 25° |
| 2026-05-07 23:31 | -22.87633 | -45.96992 | 20861 ft | 407 kts | 32° |
| 2026-05-07 23:31 | -22.85297 | -45.95193 | 21289 ft | 413 kts | 34° |
| 2026-05-07 23:32 | -22.82952 | -45.93353 | 21740 ft | 417 kts | 33° |
| 2026-05-07 23:32 | -22.80532 | -45.91583 | 22173 ft | 422 kts | 31° |
| 2026-05-07 23:32 | -22.78104 | -45.89815 | 22586 ft | 428 kts | 33° |
| 2026-05-07 23:32 | -22.75670 | -45.87927 | 23071 ft | 432 kts | 34° |
| 2026-05-07 23:33 | -22.73208 | -45.86023 | 23521 ft | 436 kts | 33° |
| 2026-05-07 23:33 | -22.70682 | -45.84174 | 23928 ft | 439 kts | 32° |
| 2026-05-07 23:33 | -22.68148 | -45.82312 | 24354 ft | 442 kts | 33° |
| 2026-05-07 23:33 | -22.65669 | -45.80400 | 24735 ft | 445 kts | 34° |
| 2026-05-07 23:34 | -22.63131 | -45.78457 | 25136 ft | 448 kts | 33° |
| 2026-05-07 23:34 | -22.60537 | -45.76555 | 25548 ft | 450 kts | 32° |
| 2026-05-07 23:34 | -22.57929 | -45.74625 | 25948 ft | 453 kts | 33° |
| 2026-05-07 23:34 | -22.55380 | -45.72671 | 26327 ft | 457 kts | 34° |
| 2026-05-07 23:35 | -22.52765 | -45.70686 | 26728 ft | 459 kts | 33° |
| 2026-05-07 23:35 | -22.50107 | -45.68735 | 27119 ft | 462 kts | 33° |
| 2026-05-07 23:35 | -22.47437 | -45.66753 | 27510 ft | 465 kts | 34° |
| 2026-05-07 23:35 | -22.44782 | -45.64724 | 27873 ft | 469 kts | 34° |
| 2026-05-07 23:36 | -22.42135 | -45.62729 | 28249 ft | 472 kts | 33° |
| 2026-05-07 23:36 | -22.39402 | -45.60723 | 28647 ft | 474 kts | 33° |
| 2026-05-07 23:36 | -22.36674 | -45.58695 | 29028 ft | 477 kts | 34° |
| 2026-05-07 23:36 | -22.33952 | -45.56621 | 29400 ft | 480 kts | 34° |
| 2026-05-07 23:37 | -22.31224 | -45.54576 | 29744 ft | 483 kts | 33° |
| 2026-05-07 23:37 | -22.28426 | -45.52526 | 30131 ft | 486 kts | 33° |
| 2026-05-07 23:37 | -22.25634 | -45.50445 | 30422 ft | 489 kts | 34° |
| 2026-05-07 23:37 | -22.22832 | -45.48316 | 30736 ft | 492 kts | 34° |
| 2026-05-07 23:38 | -22.20005 | -45.46209 | 31032 ft | 495 kts | 33° |
| 2026-05-07 23:38 | -22.17168 | -45.44134 | 31303 ft | 498 kts | 33° |
| 2026-05-07 23:38 | -22.14305 | -45.41996 | 31625 ft | 501 kts | 34° |
| 2026-05-07 23:38 | -22.11444 | -45.39829 | 31901 ft | 505 kts | 34° |
| 2026-05-07 23:39 | -22.08533 | -45.37671 | 32180 ft | 508 kts | 33° |
| 2026-05-07 23:39 | -22.05599 | -45.35525 | 32498 ft | 510 kts | 34° |
| 2026-05-07 23:39 | -22.02719 | -45.33254 | 32694 ft | 514 kts | 39° |
| 2026-05-07 23:39 | -21.99950 | -45.30822 | 33070 ft | 514 kts | 38° |
| 2026-05-07 23:40 | -21.97126 | -45.28456 | 33493 ft | 514 kts | 37° |
| 2026-05-07 23:40 | -21.94299 | -45.26172 | 33812 ft | 515 kts | 37° |
| 2026-05-07 23:40 | -21.91475 | -45.23782 | 34180 ft | 515 kts | 39° |
| 2026-05-07 23:40 | -21.88697 | -45.21343 | 34503 ft | 515 kts | 39° |
| 2026-05-07 23:41 | -21.85866 | -45.18962 | 34798 ft | 516 kts | 37° |
| 2026-05-07 23:41 | -21.82992 | -45.16635 | 35091 ft | 517 kts | 37° |
| 2026-05-07 23:41 | -21.77290 | -45.11745 | 35073 ft | 524 kts | 39° |
| 2026-05-07 23:42 | -21.71507 | -45.06967 | 35091 ft | 523 kts | 37° |
| 2026-05-07 23:42 | -21.65840 | -45.02129 | 35099 ft | 523 kts | 39° |
| 2026-05-07 23:43 | -21.60047 | -44.97343 | 35088 ft | 529 kts | 38° |
| 2026-05-07 23:43 | -21.54258 | -44.92420 | 35089 ft | 529 kts | 40° |
| 2026-05-07 23:44 | -21.48412 | -44.87593 | 35088 ft | 529 kts | 38° |
| 2026-05-07 23:44 | -21.42682 | -44.82738 | 35089 ft | 528 kts | 40° |
| 2026-05-07 23:45 | -21.36841 | -44.77915 | 35090 ft | 528 kts | 38° |
| 2026-05-07 23:45 | -21.31099 | -44.73065 | 35091 ft | 527 kts | 40° |
| 2026-05-07 23:46 | -21.25287 | -44.68266 | 35093 ft | 528 kts | 38° |
| 2026-05-07 23:46 | -21.19504 | -44.63397 | 35091 ft | 527 kts | 40° |
| 2026-05-07 23:47 | -21.13683 | -44.58595 | 35096 ft | 527 kts | 38° |
| 2026-05-07 23:47 | -21.07943 | -44.53778 | 35097 ft | 526 kts | 40° |
| 2026-05-07 23:48 | -21.02136 | -44.48992 | 35105 ft | 527 kts | 38° |
| 2026-05-07 23:48 | -20.96351 | -44.44151 | 35105 ft | 527 kts | 40° |
| 2026-05-07 23:49 | -20.90551 | -44.39382 | 35105 ft | 529 kts | 38° |
| 2026-05-07 23:49 | -20.84745 | -44.34539 | 35106 ft | 526 kts | 39° |
| 2026-05-07 23:50 | -20.78974 | -44.29802 | 35106 ft | 523 kts | 38° |
| 2026-05-07 23:50 | -20.73236 | -44.25025 | 35099 ft | 523 kts | 39° |
| 2026-05-07 23:51 | -20.67449 | -44.20283 | 35098 ft | 524 kts | 38° |
| 2026-05-07 23:51 | -20.61697 | -44.15501 | 35101 ft | 524 kts | 40° |
| 2026-05-07 23:52 | -20.56028 | -44.10690 | 35110 ft | 523 kts | 39° |
| 2026-05-07 23:52 | -20.50301 | -44.05897 | 35114 ft | 522 kts | 40° |
| 2026-05-07 23:53 | -20.44523 | -44.01157 | 35115 ft | 523 kts | 37° |
| 2026-05-07 23:53 | -20.38736 | -43.96437 | 35117 ft | 524 kts | 40° |
| 2026-05-07 23:54 | -20.32988 | -43.91721 | 35117 ft | 524 kts | 37° |
| 2026-05-07 23:54 | -20.27181 | -43.86998 | 35117 ft | 524 kts | 39° |
| 2026-05-07 23:55 | -20.21426 | -43.82281 | 35126 ft | 524 kts | 37° |
| 2026-05-07 23:55 | -20.15619 | -43.77572 | 35122 ft | 524 kts | 39° |
| 2026-05-07 23:56 | -20.09833 | -43.72835 | 35122 ft | 524 kts | 37° |
| 2026-05-07 23:56 | -20.04046 | -43.68154 | 35126 ft | 525 kts | 39° |
| 2026-05-07 23:57 | -19.98258 | -43.63421 | 35121 ft | 524 kts | 38° |
| 2026-05-07 23:57 | -19.92465 | -43.58747 | 35118 ft | 524 kts | 39° |
| 2026-05-07 23:58 | -19.86672 | -43.54015 | 35113 ft | 525 kts | 38° |
| 2026-05-07 23:58 | -19.80895 | -43.49340 | 35109 ft | 524 kts | 40° |
| 2026-05-07 23:59 | -19.75104 | -43.44610 | 35112 ft | 524 kts | 38° |
| 2026-05-07 23:59 | -19.69294 | -43.39919 | 35112 ft | 523 kts | 40° |
| 2026-05-08 00:00 | -19.63522 | -43.35214 | 35110 ft | 523 kts | 38° |
| 2026-05-08 00:00 | -19.57750 | -43.30561 | 35112 ft | 522 kts | 40° |
| 2026-05-08 00:01 | -19.51962 | -43.25850 | 35109 ft | 524 kts | 38° |
| 2026-05-08 00:01 | -19.46176 | -43.21194 | 35106 ft | 525 kts | 40° |
| 2026-05-08 00:02 | -19.40370 | -43.16477 | 35105 ft | 525 kts | 38° |
| 2026-05-08 00:02 | -19.34557 | -43.11808 | 35105 ft | 524 kts | 40° |
| 2026-05-08 00:03 | -19.28787 | -43.07128 | 35098 ft | 525 kts | 38° |
| 2026-05-08 00:03 | -19.22945 | -43.02445 | 35099 ft | 526 kts | 40° |
| 2026-05-08 00:04 | -19.17163 | -42.97766 | 35105 ft | 526 kts | 38° |
| 2026-05-08 00:04 | -19.11305 | -42.93076 | 35100 ft | 525 kts | 40° |
| 2026-05-08 00:05 | -19.05535 | -42.88417 | 35101 ft | 525 kts | 38° |
| 2026-05-08 00:05 | -18.99711 | -42.83761 | 35107 ft | 524 kts | 40° |
| 2026-05-08 00:06 | -18.93896 | -42.79076 | 35107 ft | 525 kts | 38° |
| 2026-05-08 00:06 | -18.88054 | -42.74410 | 35106 ft | 525 kts | 40° |
| 2026-05-08 00:07 | -18.82271 | -42.69768 | 35104 ft | 525 kts | 38° |
| 2026-05-08 00:07 | -18.76444 | -42.65120 | 35105 ft | 525 kts | 40° |
| 2026-05-08 00:08 | -18.70619 | -42.60455 | 35106 ft | 526 kts | 38° |
| 2026-05-08 00:08 | -18.64800 | -42.55818 | 35101 ft | 526 kts | 40° |
| 2026-05-08 00:09 | -18.58962 | -42.51151 | 35106 ft | 526 kts | 39° |
| 2026-05-08 00:09 | -18.53136 | -42.46512 | 35097 ft | 524 kts | 40° |
| 2026-05-08 00:10 | -18.47289 | -42.41851 | 35087 ft | 526 kts | 39° |
| 2026-05-08 00:10 | -18.41469 | -42.37223 | 35086 ft | 526 kts | 40° |
| 2026-05-08 00:11 | -18.35619 | -42.32566 | 35091 ft | 527 kts | 39° |
| 2026-05-08 00:11 | -18.29764 | -42.27920 | 35092 ft | 526 kts | 40° |
| 2026-05-08 00:12 | -18.23912 | -42.23271 | 35093 ft | 527 kts | 39° |
| 2026-05-08 00:12 | -18.18059 | -42.18635 | 35081 ft | 525 kts | 40° |
| 2026-05-08 00:13 | -18.12260 | -42.14037 | 35086 ft | 526 kts | 39° |
| 2026-05-08 00:13 | -18.06406 | -42.09408 | 35092 ft | 526 kts | 40° |
| 2026-05-08 00:14 | -18.01515 | -42.05517 | 35090 ft | 526 kts | 39° |
| 2026-05-08 00:14 | -17.95676 | -42.00946 | 35106 ft | 526 kts | 40° |
| 2026-05-08 00:15 | -17.89828 | -41.96284 | 35104 ft | 526 kts | 39° |
| 2026-05-08 00:15 | -17.83949 | -41.91691 | 35104 ft | 526 kts | 40° |
| 2026-05-08 00:16 | -17.78153 | -41.87077 | 35105 ft | 525 kts | 39° |
| 2026-05-08 00:16 | -17.72267 | -41.82486 | 35121 ft | 524 kts | 40° |
| 2026-05-08 00:17 | -17.66482 | -41.77889 | 35122 ft | 525 kts | 39° |
| 2026-05-08 00:17 | -17.60616 | -41.73321 | 35117 ft | 525 kts | 40° |
| 2026-05-08 00:18 | -17.54786 | -41.68698 | 35111 ft | 525 kts | 39° |
| 2026-05-08 00:18 | -17.48925 | -41.64138 | 35114 ft | 524 kts | 40° |
| 2026-05-08 00:19 | -17.43124 | -41.59550 | 35119 ft | 525 kts | 39° |
| 2026-05-08 00:19 | -17.37240 | -41.54976 | 35117 ft | 525 kts | 40° |
| 2026-05-08 00:20 | -17.31424 | -41.50381 | 35115 ft | 526 kts | 39° |
| 2026-05-08 00:20 | -17.25547 | -41.45821 | 35113 ft | 525 kts | 40° |
| 2026-05-08 00:21 | -17.19713 | -41.41219 | 35116 ft | 524 kts | 39° |
| 2026-05-08 00:21 | -17.13844 | -41.36675 | 35125 ft | 524 kts | 40° |
| 2026-05-08 00:22 | -17.08057 | -41.32114 | 35121 ft | 525 kts | 39° |
| 2026-05-08 00:22 | -17.02175 | -41.27566 | 35115 ft | 525 kts | 40° |
| 2026-05-08 00:23 | -16.96337 | -41.22977 | 35117 ft | 525 kts | 39° |
| 2026-05-08 00:23 | -16.90461 | -41.18436 | 35114 ft | 524 kts | 40° |
| 2026-05-08 00:24 | -16.84667 | -41.13892 | 35113 ft | 524 kts | 39° |
| 2026-05-08 00:24 | -16.78800 | -41.09365 | 35115 ft | 523 kts | 40° |
| 2026-05-08 00:25 | -16.72963 | -41.04793 | 35117 ft | 519 kts | 39° |
| 2026-05-08 00:25 | -16.70097 | -41.02622 | 35110 ft | 508 kts | 39° |
| 2026-05-08 00:25 | -16.67296 | -41.00435 | 35102 ft | 497 kts | 40° |
| 2026-05-08 00:26 | -16.61858 | -40.96172 | 35103 ft | 483 kts | 39° |